Terminal Aerodrome Forecast
Issued by NWS Medford, OR

Home | Current Version | Previous Version | Text Only | Print | Product List | Glossary On
Versions: 1 2 3 4 5 6 7 8 9 10 11
000
FTUS46 KMFR 261321 AAA
TAFMFR
TAF AMD
KMFR 261321Z 2613/2712 00000KT 1/2SM FG BKN002 BKN015 BKN050
     FM261700 00000KT 3SM BR BKN007 BKN020 BKN050
     FM261900 VRB02KT P6SM SCT025 BKN050
     FM262200 VRB02KT P6SM FEW030 SCT050
     FM270800 00000KT 5SM BR FEW003 SCT150 BKN250=

USA.gov is the U.S. government's official web portal to all federal, state and local government web resources and services.